sensor_id;sensor_type;location;lat;lon;timestamp;pressure;altitude;pressure_sealevel;temperature;humidity
23363;BME280;11853;48.080;11.960;2022-11-20T00:00:18;94217.06;;;6.69;100.00
23363;BME280;11853;48.080;11.960;2022-11-20T00:02:43;94208.22;;;6.70;100.00
23363;BME280;11853;48.080;11.960;2022-11-20T00:05:09;94210.41;;;6.74;100.00
23363;BME280;11853;48.080;11.960;2022-11-20T00:07:35;94206.94;;;6.74;100.00
23363;BME280;11853;48.080;11.960;2022-11-20T00:10:01;94202.66;;;6.73;100.00
23363;BME280;11853;48.080;11.960;2022-11-20T00:12:27;94208.22;;;6.70;100.00
23363;BME280;11853;48.080;11.960;2022-11-20T00:14:55;94209.16;;;6.69;100.00
23363;BME280;11853;48.080;11.960;2022-11-20T00:17:20;94208.06;;;6.71;100.00
23363;BME280;11853;48.080;11.960;2022-11-20T00:19:46;94207.81;;;6.65;100.00
23363;BME280;11853;48.080;11.960;2022-11-20T00:22:11;94212.25;;;6.64;100.00
23363;BME280;11853;48.080;11.960;2022-11-20T00:24:37;94212.41;;;6.63;100.00
23363;BME280;11853;48.080;11.960;2022-11-20T00:27:02;94209.63;;;6.64;100.00
23363;BME280;11853;48.080;11.960;2022-11-20T00:29:28;94218.66;;;6.62;100.00
23363;BME280;11853;48.080;11.960;2022-11-20T00:31:54;94221.41;;;6.60;100.00
23363;BME280;11853;48.080;11.960;2022-11-20T00:34:20;94213.50;;;6.60;100.00
23363;BME280;11853;48.080;11.960;2022-11-20T00:36:45;94217.53;;;6.64;100.00
23363;BME280;11853;48.080;11.960;2022-11-20T00:39:11;94221.00;;;6.65;100.00
23363;BME280;11853;48.080;11.960;2022-11-20T00:41:36;94224.44;;;6.65;100.00
23363;BME280;11853;48.080;11.960;2022-11-20T00:44:02;94219.22;;;6.56;100.00
23363;BME280;11853;48.080;11.960;2022-11-20T00:46:28;94225.03;;;6.59;100.00
23363;BME280;11853;48.080;11.960;2022-11-20T00:48:53;94228.91;;;6.55;100.00
23363;BME280;11853;48.080;11.960;2022-11-20T00:51:21;94228.09;;;6.54;100.00
23363;BME280;11853;48.080;11.960;2022-11-20T00:53:47;94231.66;;;6.63;100.00
23363;BME280;11853;48.080;11.960;2022-11-20T00:56:15;94234.31;;;6.63;100.00
23363;BME280;11853;48.080;11.960;2022-11-20T00:58:42;94244.72;;;6.65;100.00
23363;BME280;11853;48.080;11.960;2022-11-20T01:01:14;94240.97;;;6.67;100.00
23363;BME280;11853;48.080;11.960;2022-11-20T01:03:42;94243.44;;;6.69;100.00
23363;BME280;11853;48.080;11.960;2022-11-20T01:06:35;94244.25;;;6.69;100.00
23363;BME280;11853;48.080;11.960;2022-11-20T01:09:11;94249.00;;;6.66;100.00
23363;BME280;11853;48.080;11.960;2022-11-20T01:11:39;94252.31;;;6.68;100.00
23363;BME280;11853;48.080;11.960;2022-11-20T01:14:07;94253.56;;;6.64;100.00
23363;BME280;11853;48.080;11.960;2022-11-20T01:16:39;94263.56;;;6.60;100.00
23363;BME280;11853;48.080;11.960;2022-11-20T01:19:10;94257.19;;;6.63;100.00
23363;BME280;11853;48.080;11.960;2022-11-20T01:21:38;94262.47;;;6.63;100.00
23363;BME280;11853;48.080;11.960;2022-11-20T01:24:06;94258.31;;;6.60;100.00
23363;BME280;11853;48.080;11.960;2022-11-20T01:26:35;94259.13;;;6.61;100.00
23363;BME280;11853;48.080;11.960;2022-11-20T01:29:01;94273.00;;;6.63;100.00
23363;BME280;11853;48.080;11.960;2022-11-20T01:31:30;94269.78;;;6.69;100.00
23363;BME280;11853;48.080;11.960;2022-11-20T01:33:58;94259.41;;;6.67;100.00
23363;BME280;11853;48.080;11.960;2022-11-20T01:36:26;94257.19;;;6.72;100.00
23363;BME280;11853;48.080;11.960;2022-11-20T01:38:53;94259.41;;;6.67;100.00
23363;BME280;11853;48.080;11.960;2022-11-20T01:41:20;94261.22;;;6.67;100.00
23363;BME280;11853;48.080;11.960;2022-11-20T01:44:05;94258.59;;;6.67;100.00
23363;BME280;11853;48.080;11.960;2022-11-20T01:46:32;94263.44;;;6.62;100.00
23363;BME280;11853;48.080;11.960;2022-11-20T01:49:04;94263.28;;;6.63;100.00
23363;BME280;11853;48.080;11.960;2022-11-20T01:51:42;94259.69;;;6.64;100.00
23363;BME280;11853;48.080;11.960;2022-11-20T01:54:13;94267.72;;;6.63;100.00
23363;BME280;11853;48.080;11.960;2022-11-20T01:56:43;94266.91;;;6.62;100.00
23363;BME280;11853;48.080;11.960;2022-11-20T01:59:11;94271.06;;;6.65;100.00
23363;BME280;11853;48.080;11.960;2022-11-20T02:01:39;94269.38;;;6.64;100.00
23363;BME280;11853;48.080;11.960;2022-11-20T02:04:05;94260.53;;;6.65;100.00
23363;BME280;11853;48.080;11.960;2022-11-20T02:06:59;94258.19;;;6.62;100.00
23363;BME280;11853;48.080;11.960;2022-11-20T02:09:23;94268.56;;;6.63;100.00
23363;BME280;11853;48.080;11.960;2022-11-20T02:11:49;94264.97;;;6.64;100.00
23363;BME280;11853;48.080;11.960;2022-11-20T02:14:15;94264.69;;;6.67;100.00
23363;BME280;11853;48.080;11.960;2022-11-20T02:16:45;94264.38;;;6.70;100.00
23363;BME280;11853;48.080;11.960;2022-11-20T02:19:31;94266.88;;;6.72;100.00
23363;BME280;11853;48.080;11.960;2022-11-20T02:22:10;94270.78;;;6.68;100.00
23363;BME280;11853;48.080;11.960;2022-11-20T02:24:39;94255.66;;;6.70;100.00
23363;BME280;11853;48.080;11.960;2022-11-20T02:27:11;94263.56;;;6.70;100.00
23363;BME280;11853;48.080;11.960;2022-11-20T02:29:57;94265.50;;;6.68;100.00
23363;BME280;11853;48.080;11.960;2022-11-20T02:32:28;94273.41;;;6.68;100.00
23363;BME280;11853;48.080;11.960;2022-11-20T02:34:55;94267.44;;;6.66;100.00
23363;BME280;11853;48.080;11.960;2022-11-20T02:37:21;94271.88;;;6.65;100.00
23363;BME280;11853;48.080;11.960;2022-11-20T02:39:49;94270.53;;;6.61;100.00
23363;BME280;11853;48.080;11.960;2022-11-20T02:42:15;94277.44;;;6.62;100.00
23363;BME280;11853;48.080;11.960;2022-11-20T02:44:41;94266.09;;;6.62;100.00
23363;BME280;11853;48.080;11.960;2022-11-20T02:47:06;94266.91;;;6.62;100.00
23363;BME280;11853;48.080;11.960;2022-11-20T02:49:32;94266.38;;;6.59;100.00
23363;BME280;11853;48.080;11.960;2022-11-20T02:51:58;94267.03;;;6.61;100.00
23363;BME280;11853;48.080;11.960;2022-11-20T02:54:24;94263.88;;;6.57;100.00
23363;BME280;11853;48.080;11.960;2022-11-20T02:56:49;94265.25;;;6.51;100.00
23363;BME280;11853;48.080;11.960;2022-11-20T02:59:15;94260.97;;;6.50;100.00
23363;BME280;11853;48.080;11.960;2022-11-20T03:01:40;94255.31;;;6.45;100.00
23363;BME280;11853;48.080;11.960;2022-11-20T03:04:06;94258.75;;;6.46;100.00
23363;BME280;11853;48.080;11.960;2022-11-20T03:06:32;94257.53;;;6.50;100.00
23363;BME280;11853;48.080;11.960;2022-11-20T03:08:57;94253.38;;;6.47;100.00
23363;BME280;11853;48.080;11.960;2022-11-20T03:11:23;94252.53;;;6.47;100.00
23363;BME280;11853;48.080;11.960;2022-11-20T03:13:49;94255.44;;;6.44;100.00
23363;BME280;11853;48.080;11.960;2022-11-20T03:16:17;94255.00;;;6.48;100.00
23363;BME280;11853;48.080;11.960;2022-11-20T03:18:44;94255.19;;;6.47;100.00
23363;BME280;11853;48.080;11.960;2022-11-20T03:21:11;94256.13;;;6.46;100.00
23363;BME280;11853;48.080;11.960;2022-11-20T03:23:38;94255.00;;;6.48;100.00
23363;BME280;11853;48.080;11.960;2022-11-20T03:26:13;94258.34;;;6.50;100.00
23363;BME280;11853;48.080;11.960;2022-11-20T03:28:40;94247.53;;;6.44;100.00
23363;BME280;11853;48.080;11.960;2022-11-20T03:31:14;94258.34;;;6.50;100.00
23363;BME280;11853;48.080;11.960;2022-11-20T03:33:41;94254.19;;;6.48;100.00
23363;BME280;11853;48.080;11.960;2022-11-20T03:36:11;94252.25;;;6.50;100.00
23363;BME280;11853;48.080;11.960;2022-11-20T03:38:37;94257.81;;;6.47;100.00
23363;BME280;11853;48.080;11.960;2022-11-20T03:41:09;94255.31;;;6.45;100.00
23363;BME280;11853;48.080;11.960;2022-11-20T03:43:35;94251.41;;;6.49;100.00
23363;BME280;11853;48.080;11.960;2022-11-20T03:46:05;94250.84;;;6.46;100.00
23363;BME280;11853;48.080;11.960;2022-11-20T03:48:31;94254.31;;;6.46;100.00
23363;BME280;11853;48.080;11.960;2022-11-20T03:51:16;94255.44;;;6.44;100.00
23363;BME280;11853;48.080;11.960;2022-11-20T03:53:44;94264.19;;;6.44;100.00
23363;BME280;11853;48.080;11.960;2022-11-20T03:56:11;94260.56;;;6.45;100.00
23363;BME280;11853;48.080;11.960;2022-11-20T03:58:39;94257.94;;;6.45;100.00
23363;BME280;11853;48.080;11.960;2022-11-20T04:01:13;94262.66;;;6.42;100.00
23363;BME280;11853;48.080;11.960;2022-11-20T04:03:40;94263.50;;;6.42;100.00
23363;BME280;11853;48.080;11.960;2022-11-20T04:06:14;94259.34;;;6.40;100.00
23363;BME280;11853;48.080;11.960;2022-11-20T04:08:49;94262.50;;;6.43;100.00
23363;BME280;11853;48.080;11.960;2022-11-20T04:11:20;94260.28;;;6.48;100.00
23363;BME280;11853;48.080;11.960;2022-11-20T04:13:51;94256.41;;;6.52;100.00
23363;BME280;11853;48.080;11.960;2022-11-20T04:16:17;94254.88;;;6.50;100.00
23363;BME280;11853;48.080;11.960;2022-11-20T04:18:43;94261.28;;;6.47;100.00
23363;BME280;11853;48.080;11.960;2022-11-20T04:21:09;94260.69;;;6.44;100.00
23363;BME280;11853;48.080;11.960;2022-11-20T04:23:35;94265.56;;;6.48;100.00
23363;BME280;11853;48.080;11.960;2022-11-20T04:26:06;94270.81;;;6.48;100.00
23363;BME280;11853;48.080;11.960;2022-11-20T04:28:32;94269.19;;;6.47;100.00
23363;BME280;11853;48.080;11.960;2022-11-20T04:31:03;94269.59;;;6.43;100.00
23363;BME280;11853;48.080;11.960;2022-11-20T04:33:28;94273.34;;;6.40;100.00
23363;BME280;11853;48.080;11.960;2022-11-20T04:35:54;94270.84;;;6.39;100.00
23363;BME280;11853;48.080;11.960;2022-11-20T04:38:20;94277.22;;;6.46;100.00
23363;BME280;11853;48.080;11.960;2022-11-20T04:40:45;94270.28;;;6.45;100.00
23363;BME280;11853;48.080;11.960;2022-11-20T04:43:11;94277.22;;;6.46;100.00
23363;BME280;11853;48.080;11.960;2022-11-20T04:45:36;94275.97;;;6.50;100.00
23363;BME280;11853;48.080;11.960;2022-11-20T04:48:02;94282.75;;;6.52;100.00
23363;BME280;11853;48.080;11.960;2022-11-20T04:50:27;94270.53;;;6.51;100.00
23363;BME280;11853;48.080;11.960;2022-11-20T04:52:53;94277.50;;;6.52;100.00
23363;BME280;11853;48.080;11.960;2022-11-20T04:55:18;94266.53;;;6.47;100.00
23363;BME280;11853;48.080;11.960;2022-11-20T04:57:44;94261.56;;;6.44;100.00
23363;BME280;11853;48.080;11.960;2022-11-20T05:00:10;94266.94;;;6.43;100.00
23363;BME280;11853;48.080;11.960;2022-11-20T05:02:36;94264.19;;;6.44;100.00
23363;BME280;11853;48.080;11.960;2022-11-20T05:05:01;94261.41;;;6.46;100.00
23363;BME280;11853;48.080;11.960;2022-11-20T05:07:27;94265.00;;;6.45;100.00
23363;BME280;11853;48.080;11.960;2022-11-20T05:09:52;94270.97;;;6.47;100.00
23363;BME280;11853;48.080;11.960;2022-11-20T05:12:18;94273.63;;;6.47;100.00
23363;BME280;11853;48.080;11.960;2022-11-20T05:14:43;94269.00;;;6.49;100.00
23363;BME280;11853;48.080;11.960;2022-11-20T05:17:12;94269.72;;;6.51;100.00
23363;BME280;11853;48.080;11.960;2022-11-20T05:19:38;94275.69;;;6.53;100.00
23363;BME280;11853;48.080;11.960;2022-11-20T05:22:04;94275.81;;;6.51;100.00
23363;BME280;11853;48.080;11.960;2022-11-20T05:24:30;94274.16;;;6.50;100.00
23363;BME280;11853;48.080;11.960;2022-11-20T05:26:56;94279.13;;;6.53;100.00
23363;BME280;11853;48.080;11.960;2022-11-20T05:29:21;94280.66;;;6.56;100.00
23363;BME280;11853;48.080;11.960;2022-11-20T05:31:47;94285.09;;;6.56;100.00
23363;BME280;11853;48.080;11.960;2022-11-20T05:34:12;94279.13;;;6.53;100.00
23363;BME280;11853;48.080;11.960;2022-11-20T05:36:38;94274.84;;;6.52;100.00
23363;BME280;11853;48.080;11.960;2022-11-20T05:39:03;94277.50;;;6.52;100.00
23363;BME280;11853;48.080;11.960;2022-11-20T05:41:29;94283.44;;;6.54;100.00
23363;BME280;11853;48.080;11.960;2022-11-20T05:43:55;94279.56;;;6.49;100.00
23363;BME280;11853;48.080;11.960;2022-11-20T05:46:21;94273.75;;;6.45;100.00
23363;BME280;11853;48.080;11.960;2022-11-20T05:48:47;94275.97;;;6.50;100.00
23363;BME280;11853;48.080;11.960;2022-11-20T05:51:15;94281.38;;;6.48;100.00
23363;BME280;11853;48.080;11.960;2022-11-20T05:53:41;94272.47;;;6.49;100.00
23363;BME280;11853;48.080;11.960;2022-11-20T05:56:10;94286.34;;;6.51;100.00
23363;BME280;11853;48.080;11.960;2022-11-20T05:58:36;94283.88;;;6.50;100.00
23363;BME280;11853;48.080;11.960;2022-11-20T06:01:06;94281.91;;;6.52;100.00
23363;BME280;11853;48.080;11.960;2022-11-20T06:03:32;94289.69;;;6.53;100.00
23363;BME280;11853;48.080;11.960;2022-11-20T06:06:02;94289.69;;;6.53;100.00
23363;BME280;11853;48.080;11.960;2022-11-20T06:08:28;94294.13;;;6.53;100.00
23363;BME280;11853;48.080;11.960;2022-11-20T06:10:54;94293.56;;;6.49;100.00
23363;BME280;11853;48.080;11.960;2022-11-20T06:13:19;94290.78;;;6.51;100.00
23363;BME280;11853;48.080;11.960;2022-11-20T06:15:49;94289.97;;;6.50;100.00
23363;BME280;11853;48.080;11.960;2022-11-20T06:18:15;94288.28;;;6.49;100.00
23363;BME280;11853;48.080;11.960;2022-11-20T06:20:40;94290.78;;;6.51;100.00
23363;BME280;11853;48.080;11.960;2022-11-20T06:23:06;94283.47;;;6.45;100.00
23363;BME280;11853;48.080;11.960;2022-11-20T06:25:31;94291.19;;;6.46;100.00
23363;BME280;11853;48.080;11.960;2022-11-20T06:27:57;94290.38;;;6.46;100.00
23363;BME280;11853;48.080;11.960;2022-11-20T06:30:22;94289.84;;;6.42;100.00
23363;BME280;11853;48.080;11.960;2022-11-20T06:32:48;94285.56;;;6.41;100.00
23363;BME280;11853;48.080;11.960;2022-11-20T06:35:14;94292.22;;;6.36;100.00
23363;BME280;11853;48.080;11.960;2022-11-20T06:37:39;94290.41;;;6.36;100.00
23363;BME280;11853;48.080;11.960;2022-11-20T06:40:05;94295.38;;;6.39;100.00
23363;BME280;11853;48.080;11.960;2022-11-20T06:42:32;94292.06;;;6.37;100.00
23363;BME280;11853;48.080;11.960;2022-11-20T06:44:57;94294.69;;;6.37;100.00
23363;BME280;11853;48.080;11.960;2022-11-20T06:47:23;94304.28;;;6.38;100.00
23363;BME280;11853;48.080;11.960;2022-11-20T06:49:48;94298.84;;;6.40;100.00
23363;BME280;11853;48.080;11.960;2022-11-20T06:52:14;94307.75;;;6.39;100.00
23363;BME280;11853;48.080;11.960;2022-11-20T06:54:39;94310.38;;;6.39;100.00
23363;BME280;11853;48.080;11.960;2022-11-20T06:57:05;94315.63;;;6.39;100.00
23363;BME280;11853;48.080;11.960;2022-11-20T06:59:30;94312.44;;;6.35;100.00
23363;BME280;11853;48.080;11.960;2022-11-20T07:01:56;94315.78;;;6.37;100.00
23363;BME280;11853;48.080;11.960;2022-11-20T07:04:22;94316.59;;;6.38;100.00
23363;BME280;11853;48.080;11.960;2022-11-20T07:06:48;94321.03;;;6.37;100.00
23363;BME280;11853;48.080;11.960;2022-11-20T07:09:13;94317.69;;;6.35;100.00
23363;BME280;11853;48.080;11.960;2022-11-20T07:11:39;94312.19;;;6.38;100.00
23363;BME280;11853;48.080;11.960;2022-11-20T07:14:04;94331.03;;;6.34;100.00
23363;BME280;11853;48.080;11.960;2022-11-20T07:16:30;94332.00;;;6.32;100.00
23363;BME280;11853;48.080;11.960;2022-11-20T07:18:56;94335.19;;;6.36;100.00
23363;BME280;11853;48.080;11.960;2022-11-20T07:21:21;94333.38;;;6.37;100.00
23363;BME280;11853;48.080;11.960;2022-11-20T07:23:47;94334.91;;;6.39;100.00
23363;BME280;11853;48.080;11.960;2022-11-20T07:26:12;94337.81;;;6.36;100.00
23363;BME280;11853;48.080;11.960;2022-11-20T07:28:38;94335.03;;;6.38;100.00
23363;BME280;11853;48.080;11.960;2022-11-20T07:31:04;94340.47;;;6.36;100.00
23363;BME280;11853;48.080;11.960;2022-11-20T07:33:32;94336.56;;;6.40;100.00
23363;BME280;11853;48.080;11.960;2022-11-20T07:36:01;94332.13;;;6.41;100.00
23363;BME280;11853;48.080;11.960;2022-11-20T07:38:26;94333.22;;;6.48;100.00
23363;BME280;11853;48.080;11.960;2022-11-20T07:40:58;94335.06;;;6.94;100.00
23363;BME280;11853;48.080;11.960;2022-11-20T07:43:27;94324.56;;;7.50;98.83
23363;BME280;11853;48.080;11.960;2022-11-20T07:45:55;94323.28;;;8.17;95.47
23363;BME280;11853;48.080;11.960;2022-11-20T07:48:21;94321.88;;;8.85;92.55
23363;BME280;11853;48.080;11.960;2022-11-20T07:50:47;94326.50;;;9.43;87.14
23363;BME280;11853;48.080;11.960;2022-11-20T07:53:12;94322.38;;;9.99;85.79
23363;BME280;11853;48.080;11.960;2022-11-20T07:55:39;94330.44;;;10.56;83.22
23363;BME280;11853;48.080;11.960;2022-11-20T07:58:05;94326.44;;;10.93;81.10
23363;BME280;11853;48.080;11.960;2022-11-20T08:00:31;94327.44;;;10.84;79.56
23363;BME280;11853;48.080;11.960;2022-11-20T08:02:56;94320.13;;;10.86;80.00
23363;BME280;11853;48.080;11.960;2022-11-20T08:05:22;94327.28;;;10.45;80.37
23363;BME280;11853;48.080;11.960;2022-11-20T08:07:48;94326.31;;;9.79;81.05
23363;BME280;11853;48.080;11.960;2022-11-20T08:10:14;94331.28;;;9.39;82.93
23363;BME280;11853;48.080;11.960;2022-11-20T08:12:46;94324.28;;;9.04;84.62
23363;BME280;11853;48.080;11.960;2022-11-20T08:15:30;94318.75;;;8.63;86.12
23363;BME280;11853;48.080;11.960;2022-11-20T08:18:14;94326.31;;;8.40;87.93
23363;BME280;11853;48.080;11.960;2022-11-20T08:20:39;94323.50;;;8.24;88.84
23363;BME280;11853;48.080;11.960;2022-11-20T08:23:06;94325.25;;;8.15;89.34
23363;BME280;11853;48.080;11.960;2022-11-20T08:25:34;94331.97;;;8.09;90.00
23363;BME280;11853;48.080;11.960;2022-11-20T08:28:02;94336.28;;;7.93;91.51
23363;BME280;11853;48.080;11.960;2022-11-20T08:30:28;94334.91;;;7.88;92.08
23363;BME280;11853;48.080;11.960;2022-11-20T08:32:54;94340.38;;;7.77;92.01
23363;BME280;11853;48.080;11.960;2022-11-20T08:35:26;94331.78;;;7.75;92.45
23363;BME280;11853;48.080;11.960;2022-11-20T08:37:51;94335.69;;;7.71;91.81
23363;BME280;11853;48.080;11.960;2022-11-20T08:40:17;94333.06;;;7.71;92.43
23363;BME280;11853;48.080;11.960;2022-11-20T08:42:48;94330.28;;;7.73;92.67
23363;BME280;11853;48.080;11.960;2022-11-20T08:45:14;94334.19;;;7.68;91.54
23363;BME280;11853;48.080;11.960;2022-11-20T08:47:40;94338.25;;;7.63;92.58
23363;BME280;11853;48.080;11.960;2022-11-20T08:50:08;94344.41;;;7.54;91.67
23363;BME280;11853;48.080;11.960;2022-11-20T08:52:33;94344.41;;;7.54;92.52
23363;BME280;11853;48.080;11.960;2022-11-20T08:54:59;94338.44;;;7.52;92.94
23363;BME280;11853;48.080;11.960;2022-11-20T08:57:24;94342.91;;;7.51;92.58
23363;BME280;11853;48.080;11.960;2022-11-20T08:59:50;94345.41;;;7.53;92.68
23363;BME280;11853;48.080;11.960;2022-11-20T09:02:15;94338.16;;;7.55;93.19
23363;BME280;11853;48.080;11.960;2022-11-20T09:04:41;94330.22;;;7.55;93.75
23363;BME280;11853;48.080;11.960;2022-11-20T09:07:06;94341.78;;;7.54;92.82
23363;BME280;11853;48.080;11.960;2022-11-20T09:09:32;94344.72;;;7.51;92.81
23363;BME280;11853;48.080;11.960;2022-11-20T09:11:58;94335.56;;;7.45;93.35
23363;BME280;11853;48.080;11.960;2022-11-20T09:14:23;94341.06;;;7.52;93.68
23363;BME280;11853;48.080;11.960;2022-11-20T09:16:54;94335.66;;;7.53;93.16
23363;BME280;11853;48.080;11.960;2022-11-20T09:19:20;94338.44;;;7.52;93.00
23363;BME280;11853;48.080;11.960;2022-11-20T09:21:46;94341.06;;;7.52;92.67
23363;BME280;11853;48.080;11.960;2022-11-20T09:24:11;94342.38;;;7.48;92.17
23363;BME280;11853;48.080;11.960;2022-11-20T09:26:37;94333.16;;;7.52;92.50
23363;BME280;11853;48.080;11.960;2022-11-20T09:29:02;94337.03;;;7.57;92.34
23363;BME280;11853;48.080;11.960;2022-11-20T09:31:28;94328.56;;;7.54;92.14
23363;BME280;11853;48.080;11.960;2022-11-20T09:33:53;94340.50;;;7.58;91.60
23363;BME280;11853;48.080;11.960;2022-11-20T09:36:20;94335.22;;;7.58;92.01
23363;BME280;11853;48.080;11.960;2022-11-20T09:38:46;94329.56;;;7.53;90.84
23363;BME280;11853;48.080;11.960;2022-11-20T09:47:24;94332.88;;;7.55;91.35
23363;BME280;11853;48.080;11.960;2022-11-20T09:55:25;94325.63;;;7.57;90.43
23363;BME280;11853;48.080;11.960;2022-11-20T09:57:54;94317.91;;;7.45;89.09
23363;BME280;11853;48.080;11.960;2022-11-20T10:00:20;94321.38;;;7.46;89.86
23363;BME280;11853;48.080;11.960;2022-11-20T10:05:49;94308.28;;;7.54;88.87
23363;BME280;11853;48.080;11.960;2022-11-20T10:08:23;94315.78;;;7.59;90.10
23363;BME280;11853;48.080;11.960;2022-11-20T10:10:56;94306.44;;;7.64;89.01
23363;BME280;11853;48.080;11.960;2022-11-20T10:13:48;94312.06;;;7.70;88.63
23363;BME280;11853;48.080;11.960;2022-11-20T10:19:14;94310.91;;;7.82;88.48
23363;BME280;11853;48.080;11.960;2022-11-20T10:22:08;94310.13;;;7.89;88.91
23363;BME280;11853;48.080;11.960;2022-11-20T10:30:02;94308.72;;;7.95;87.32
23363;BME280;11853;48.080;11.960;2022-11-20T10:32:43;94302.78;;;7.93;87.04
23363;BME280;11853;48.080;11.960;2022-11-20T10:37:50;94299.00;;;7.96;86.72
23363;BME280;11853;48.080;11.960;2022-11-20T10:43:00;94292.28;;;8.01;86.42
23363;BME280;11853;48.080;11.960;2022-11-20T10:45:38;94293.50;;;8.07;86.03
23363;BME280;11853;48.080;11.960;2022-11-20T10:48:21;94295.28;;;8.24;86.12
23363;BME280;11853;48.080;11.960;2022-11-20T10:54:06;94275.88;;;8.33;84.70
23363;BME280;11853;48.080;11.960;2022-11-20T10:56:56;94288.25;;;8.33;83.88
23363;BME280;11853;48.080;11.960;2022-11-20T11:02:18;94281.00;;;8.35;83.49
23363;BME280;11853;48.080;11.960;2022-11-20T11:04:47;94274.19;;;8.32;83.67
23363;BME280;11853;48.080;11.960;2022-11-20T11:07:35;94276.69;;;8.34;83.50
23363;BME280;11853;48.080;11.960;2022-11-20T11:10:16;94266.53;;;8.39;83.56
23363;BME280;11853;48.080;11.960;2022-11-20T11:12:45;94265.56;;;8.66;82.47
23363;BME280;11853;48.080;11.960;2022-11-20T11:15:27;94265.09;;;8.71;82.70
23363;BME280;11853;48.080;11.960;2022-11-20T11:17:53;94257.00;;;8.72;81.37
23363;BME280;11853;48.080;11.960;2022-11-20T11:20:21;94261.63;;;8.70;82.80
23363;BME280;11853;48.080;11.960;2022-11-20T11:22:50;94253.00;;;8.68;80.78
23363;BME280;11853;48.080;11.960;2022-11-20T11:25:33;94260.25;;;8.66;81.15
23363;BME280;11853;48.080;11.960;2022-11-20T11:28:02;94258.63;;;8.65;80.87
23363;BME280;11853;48.080;11.960;2022-11-20T11:30:28;94255.66;;;8.68;81.19
23363;BME280;11853;48.080;11.960;2022-11-20T11:33:17;94251.38;;;8.67;81.32
23363;BME280;11853;48.080;11.960;2022-11-20T11:35:49;94258.63;;;8.65;83.22
23363;BME280;11853;48.080;11.960;2022-11-20T11:38:27;94255.91;;;8.57;81.72
23363;BME280;11853;48.080;11.960;2022-11-20T11:40:54;94262.50;;;8.53;81.08
23363;BME280;11853;48.080;11.960;2022-11-20T11:43:24;94253.38;;;8.47;81.37
23363;BME280;11853;48.080;11.960;2022-11-20T11:54:25;94248.75;;;8.75;85.93
23363;BME280;11853;48.080;11.960;2022-11-20T11:56:52;94240.81;;;8.75;85.40
23363;BME280;11853;48.080;11.960;2022-11-20T11:59:29;94255.03;;;8.74;84.23
23363;BME280;11853;48.080;11.960;2022-11-20T12:02:04;94246.78;;;8.77;86.88
23363;BME280;11853;48.080;11.960;2022-11-20T12:04:50;94249.09;;;8.80;85.07
23363;BME280;11853;48.080;11.960;2022-11-20T12:07:30;94244.81;;;8.79;86.52
23363;BME280;11853;48.080;11.960;2022-11-20T12:10:00;94244.50;;;8.83;86.02
23363;BME280;11853;48.080;11.960;2022-11-20T12:12:37;94249.16;;;8.89;87.23
23363;BME280;11853;48.080;11.960;2022-11-20T12:15:10;94256.41;;;8.87;84.61
23363;BME280;11853;48.080;11.960;2022-11-20T12:17:37;94251.13;;;8.87;84.18
23363;BME280;11853;48.080;11.960;2022-11-20T12:20:02;94252.25;;;8.84;82.35
23363;BME280;11853;48.080;11.960;2022-11-20T12:22:56;94249.75;;;8.74;81.77
23363;BME280;11853;48.080;11.960;2022-11-20T12:25:35;94246.78;;;8.77;82.96
23363;BME280;11853;48.080;11.960;2022-11-20T12:33:33;94235.19;;;8.70;83.00
23363;BME280;11853;48.080;11.960;2022-11-20T12:50:19;94236.63;;;8.65;81.20
23363;BME280;11853;48.080;11.960;2022-11-20T12:55:35;94230.09;;;8.51;84.72
23363;BME280;11853;48.080;11.960;2022-11-20T12:58:12;94231.63;;;8.35;86.35
23363;BME280;11853;48.080;11.960;2022-11-20T13:00:51;94229.06;;;8.26;86.91
23363;BME280;11853;48.080;11.960;2022-11-20T13:03:36;94240.34;;;8.10;88.88
23363;BME280;11853;48.080;11.960;2022-11-20T13:06:16;94254.75;;;7.98;89.06
23363;BME280;11853;48.080;11.960;2022-11-20T13:08:48;94243.47;;;7.87;89.81
23363;BME280;11853;48.080;11.960;2022-11-20T13:11:24;94241.47;;;7.89;90.36
23363;BME280;11853;48.080;11.960;2022-11-20T13:19:38;94234.53;;;7.88;91.33
23363;BME280;11853;48.080;11.960;2022-11-20T13:22:04;94229.25;;;7.88;92.32
23363;BME280;11853;48.080;11.960;2022-11-20T13:24:31;94233.50;;;7.81;91.74
23363;BME280;11853;48.080;11.960;2022-11-20T13:29:42;94215.91;;;7.72;92.03
23363;BME280;11853;48.080;11.960;2022-11-20T13:34:37;94228.59;;;7.68;92.52
23363;BME280;11853;48.080;11.960;2022-11-20T13:37:03;94222.19;;;7.71;93.00
23363;BME280;11853;48.080;11.960;2022-11-20T13:39:36;94225.25;;;7.66;93.27
23363;BME280;11853;48.080;11.960;2022-11-20T13:44:42;94227.75;;;7.68;94.65
23363;BME280;11853;48.080;11.960;2022-11-20T13:47:22;94227.75;;;7.68;95.61
23363;BME280;11853;48.080;11.960;2022-11-20T13:49:48;94227.16;;;7.56;94.55
23363;BME280;11853;48.080;11.960;2022-11-20T14:00:18;94227.22;;;7.47;97.40
23363;BME280;11853;48.080;11.960;2022-11-20T14:03:01;94232.06;;;7.51;98.03
23363;BME280;11853;48.080;11.960;2022-11-20T14:05:48;94213.88;;;7.48;98.46
23363;BME280;11853;48.080;11.960;2022-11-20T14:08:47;94225.94;;;7.51;96.93
23363;BME280;11853;48.080;11.960;2022-11-20T14:11:27;94230.22;;;7.52;97.27
23363;BME280;11853;48.080;11.960;2022-11-20T14:16:25;94223.53;;;7.39;98.84
23363;BME280;11853;48.080;11.960;2022-11-20T14:18:52;94222.31;;;7.34;99.59
23363;BME280;11853;48.080;11.960;2022-11-20T14:21:29;94216.19;;;7.33;99.34
23363;BME280;11853;48.080;11.960;2022-11-20T14:24:05;94216.88;;;7.35;99.78
23363;BME280;11853;48.080;11.960;2022-11-20T14:26:32;94216.59;;;7.38;99.68
23363;BME280;11853;48.080;11.960;2022-11-20T14:28:58;94219.06;;;7.40;100.00
23363;BME280;11853;48.080;11.960;2022-11-20T14:31:25;94230.44;;;7.40;100.00